Beroun, Czech Republic
Current Conditions -  °F | °C
As of 5:30 AM on Tuesday 27 Jan 2015 (Local Time) from LKPR Reporting Station
Few Clouds Few Clouds  
Wind Chill: 21°   Ceiling: Unl
Heat Index: 32°   Visibility: 6mi
Dew Point: 30°   Wind: 16mph
Humidity: 93%   Direction: 240°WSW
Pressure: 29.85"   Gusts: NA
Location:  49.97°N, 14.07°E
Report Text: LKPR 270330Z 24014KT 9999 FEW048 M00/M01 Q1011 R24/690159R30/590195 NOSIG
Loading
Personal Weather Stations






























Interactive Weather Map New forecast layout! Learn more

10-Day Weather Forecast

Advertisements
Track Severe Weather on mobile